Terminal Aerodrome Forecast
Issued by NWS

Home | Current Version | Previous Version | Text Only | Print | Product List | Glossary On
Versions: 1 2 3 4 5 6 7 8 9 10 11 12 13 14 15 16 17 18 19 20 21 22 23 24 25
000
FTUS41 KRLX 022342
TAFCKB
TAF
KCKB 022342Z 0300/0324 00000KT 6SM HZ SCT050
     FM030300 00000KT 4SM BR SCT070
     FM030500 00000KT 2SM BR SCT001 SCT050
     FM031300 00000KT P6SM SCT040
     FM031700 VRB03KT 6SM HZ VCTS BKN030CB
     FM032300 00000KT P6SM VCTS SCT030CB=

USA.gov is the U.S. government's official web portal to all federal, state and local government web resources and services.